Sierra, Nevada
Current Conditions -  °F | °C
As of 8:15 AM on Thursday 27 Nov 2014 (Local Time) from KRTS Reporting Station
Clear Clear  
Wind Chill:   Ceiling: Unl
Heat Index:   Visibility: 10mi
Dew Point: -6°   Wind: 5mph
Humidity: 37%   Direction: 110°ESE
Pressure: 30.27"   Gusts: NA
Location:  39.7378°N, 119.889°W
Report Text: KRTS 271615Z AUTO 11004KT 10SM CLR 08/M06 A3027 RMK AO2
Loading
Personal Weather Stations






























Interactive Weather Map New forecast layout! Learn more

10-Day Weather Forecast

Advertisements
Track Severe Weather on mobile